Impacts METAR Board
IDs:

KHRI - Hermiston Muni, OR, US

Updated at: 1400 UTC 20 Oct 2021
Potential Impact None Slight Moderate High
Time 20/02Z 20/03Z 20/04Z 20/05Z 20/06Z 20/07Z 20/08Z 20/09Z 20/10Z 20/11Z 20/12Z 20/13Z 20/14Z
Temp55 53 55 50 50 52 50 46 48 55 52 53 53
Dewpt43 42 42 42 41 39 39 39 41 45 47 46 47
Altim29.78 29.76 29.74 29.73 29.73 29.71 29.71 29.71 29.71 29.77 29.75 29.74 29.75
VIS10 10 10 10 10 10 10 10 10 8 10 10 10
CIG-- -- -- -- -- -- -- -- -- 80 100 -- --
CoverCLRCLRCLRCLRCLRCLRCLRCLRCLROVCOVCSCTSCT
FltCatVFRVFRVFRVFRVFRVFRVFRVFRVFRVFRVFRVFRVFR
WX-------------------RA------
WDir901309000602402200250360110350
WSpd4 6 7 0 0 9 3 5 0 12 7 4 4
WGst-- -- -- -- -- -- -- -- -- 21 -- -- --
Raw hourly METARs
KHRI 200153Z AUTO 09004KT 10SM CLR 13/06 A2978 RMK AO2 SLP086 T01280061
KHRI 200253Z AUTO 13006KT 10SM CLR 12/06 A2976 RMK AO2 SLP079 T01170056 58013
KHRI 200353Z AUTO 09007KT 10SM CLR 13/06 A2974 RMK AO2 SLP071 T01280056
KHRI 200453Z AUTO 00000KT 10SM CLR 10/06 A2973 RMK AO2 SLP067 T01000056
KHRI 200553Z AUTO 00000KT 10SM CLR 10/05 A2973 RMK AO2 SLP066 T01000050 10172 20094 56010
KHRI 200653Z AUTO 06009KT 10SM CLR 11/04 A2971 RMK AO2 SLP059 T01110039
KHRI 200753Z AUTO 24003KT 10SM CLR 10/04 A2971 RMK AO2 SLP060 T01000039 401940017
KHRI 200853Z AUTO 22005KT 10SM CLR 08/04 A2971 RMK AO2 SLP059 T00780039 56006
KHRI 200953Z AUTO 00000KT 10SM CLR 09/05 A2971 RMK AO2 SLP060 T00890050
KHRI 201053Z AUTO 25012G21KT 8SM -RA FEW055 BKN080 OVC095 13/07 A2977 RMK AO2 RAB04 SLP079 P0000 T01280072
KHRI 201153Z AUTO 36007KT 10SM OVC100 11/08 A2975 RMK AO2 RAE22 SLP071 P0002 60002 70002 T01110083 10139 20078 50013
KHRI 201253Z AUTO 11004KT 10SM SCT120 12/08 A2974 RMK AO2 SLP069 T01170078
KHRI 201353Z AUTO 35004KT 10SM SCT095 12/08 A2975 RMK AO2 SLP074 T01170083



Page loaded:  14:15 UTC  |   07:15 AM Pacific  |   08:15 AM Mountain  |   09:15 AM Central  |   10:15 AM Eastern

 

ADVISORIES

FORECASTS

FORECASTS

OBSERVATIONS

USER TOOLS

ABOUT US